sensor_id;sensor_type;location;lat;lon;timestamp;P1;durP1;ratioP1;P2;durP2;ratioP2
8480;SDS011;4277;51.354;6.740;2023-03-21T00:01:22;12.10;;;4.83;;
8480;SDS011;4277;51.354;6.740;2023-03-21T00:03:48;10.57;;;5.13;;
8480;SDS011;4277;51.354;6.740;2023-03-21T00:06:15;8.53;;;4.23;;
8480;SDS011;4277;51.354;6.740;2023-03-21T00:08:41;7.43;;;3.90;;
8480;SDS011;4277;51.354;6.740;2023-03-21T00:11:08;12.97;;;5.00;;
8480;SDS011;4277;51.354;6.740;2023-03-21T00:13:34;18.33;;;5.27;;
8480;SDS011;4277;51.354;6.740;2023-03-21T00:16:20;9.17;;;4.50;;
8480;SDS011;4277;51.354;6.740;2023-03-21T00:18:47;8.93;;;4.60;;
8480;SDS011;4277;51.354;6.740;2023-03-21T00:21:17;9.47;;;4.43;;
8480;SDS011;4277;51.354;6.740;2023-03-21T00:23:43;8.80;;;4.67;;
8480;SDS011;4277;51.354;6.740;2023-03-21T00:26:10;11.80;;;4.53;;
8480;SDS011;4277;51.354;6.740;2023-03-21T00:28:36;8.17;;;4.40;;
8480;SDS011;4277;51.354;6.740;2023-03-21T00:31:02;10.07;;;4.47;;
8480;SDS011;4277;51.354;6.740;2023-03-21T00:33:28;9.30;;;5.07;;
8480;SDS011;4277;51.354;6.740;2023-03-21T00:35:55;9.80;;;5.00;;
8480;SDS011;4277;51.354;6.740;2023-03-21T00:38:22;10.83;;;4.60;;
8480;SDS011;4277;51.354;6.740;2023-03-21T00:40:48;9.77;;;4.70;;
8480;SDS011;4277;51.354;6.740;2023-03-21T00:43:14;13.17;;;5.23;;
8480;SDS011;4277;51.354;6.740;2023-03-21T00:45:47;10.03;;;5.10;;
8480;SDS011;4277;51.354;6.740;2023-03-21T00:48:13;11.23;;;5.10;;
8480;SDS011;4277;51.354;6.740;2023-03-21T00:50:39;15.37;;;5.10;;
8480;SDS011;4277;51.354;6.740;2023-03-21T00:53:06;9.33;;;4.97;;
8480;SDS011;4277;51.354;6.740;2023-03-21T00:55:32;10.90;;;5.03;;
8480;SDS011;4277;51.354;6.740;2023-03-21T00:57:58;9.13;;;4.87;;
8480;SDS011;4277;51.354;6.740;2023-03-21T01:00:25;11.33;;;5.10;;
8480;SDS011;4277;51.354;6.740;2023-03-21T01:02:51;9.67;;;4.63;;
8480;SDS011;4277;51.354;6.740;2023-03-21T01:05:29;6.77;;;4.83;;
8480;SDS011;4277;51.354;6.740;2023-03-21T01:08:14;10.97;;;5.03;;
8480;SDS011;4277;51.354;6.740;2023-03-21T01:10:42;9.83;;;5.07;;
8480;SDS011;4277;51.354;6.740;2023-03-21T01:13:08;11.13;;;5.20;;
8480;SDS011;4277;51.354;6.740;2023-03-21T01:15:35;11.70;;;5.17;;
8480;SDS011;4277;51.354;6.740;2023-03-21T01:18:01;13.47;;;5.47;;
8480;SDS011;4277;51.354;6.740;2023-03-21T01:20:28;13.07;;;5.80;;
8480;SDS011;4277;51.354;6.740;2023-03-21T01:22:54;13.90;;;5.87;;
8480;SDS011;4277;51.354;6.740;2023-03-21T01:25:20;11.20;;;5.70;;
8480;SDS011;4277;51.354;6.740;2023-03-21T01:27:46;12.30;;;5.63;;
8480;SDS011;4277;51.354;6.740;2023-03-21T01:30:12;13.77;;;5.53;;
8480;SDS011;4277;51.354;6.740;2023-03-21T01:32:38;11.63;;;5.83;;
8480;SDS011;4277;51.354;6.740;2023-03-21T01:35:04;12.03;;;5.57;;
8480;SDS011;4277;51.354;6.740;2023-03-21T01:37:30;13.60;;;5.43;;
8480;SDS011;4277;51.354;6.740;2023-03-21T01:39:56;13.77;;;5.30;;
8480;SDS011;4277;51.354;6.740;2023-03-21T01:42:22;13.07;;;5.73;;
8480;SDS011;4277;51.354;6.740;2023-03-21T01:47:17;9.53;;;5.53;;
8480;SDS011;4277;51.354;6.740;2023-03-21T01:49:44;12.90;;;6.17;;
8480;SDS011;4277;51.354;6.740;2023-03-21T01:52:16;12.20;;;5.83;;
8480;SDS011;4277;51.354;6.740;2023-03-21T01:54:43;13.20;;;6.40;;
8480;SDS011;4277;51.354;6.740;2023-03-21T01:57:11;12.63;;;6.73;;
8480;SDS011;4277;51.354;6.740;2023-03-21T01:59:45;11.73;;;6.70;;
8480;SDS011;4277;51.354;6.740;2023-03-21T02:02:18;13.77;;;6.30;;
8480;SDS011;4277;51.354;6.740;2023-03-21T02:04:47;16.07;;;6.60;;
8480;SDS011;4277;51.354;6.740;2023-03-21T02:07:15;12.50;;;6.57;;
8480;SDS011;4277;51.354;6.740;2023-03-21T02:09:46;10.90;;;6.43;;
8480;SDS011;4277;51.354;6.740;2023-03-21T02:12:13;10.53;;;5.83;;
8480;SDS011;4277;51.354;6.740;2023-03-21T02:14:40;11.97;;;6.93;;
8480;SDS011;4277;51.354;6.740;2023-03-21T02:17:13;10.70;;;6.10;;
8480;SDS011;4277;51.354;6.740;2023-03-21T02:27:51;13.53;;;6.50;;
8480;SDS011;4277;51.354;6.740;2023-03-21T02:30:33;13.33;;;6.10;;
8480;SDS011;4277;51.354;6.740;2023-03-21T02:38:36;12.10;;;6.53;;
8480;SDS011;4277;51.354;6.740;2023-03-21T02:41:05;15.00;;;6.90;;
8480;SDS011;4277;51.354;6.740;2023-03-21T02:46:09;12.67;;;6.47;;
8480;SDS011;4277;51.354;6.740;2023-03-21T02:48:39;8.93;;;6.50;;
8480;SDS011;4277;51.354;6.740;2023-03-21T02:51:08;13.10;;;6.13;;
8480;SDS011;4277;51.354;6.740;2023-03-21T02:53:37;12.83;;;7.30;;
8480;SDS011;4277;51.354;6.740;2023-03-21T02:56:05;19.00;;;6.97;;
8480;SDS011;4277;51.354;6.740;2023-03-21T02:58:34;14.20;;;6.80;;
8480;SDS011;4277;51.354;6.740;2023-03-21T03:01:01;12.83;;;6.50;;
8480;SDS011;4277;51.354;6.740;2023-03-21T03:03:27;16.47;;;7.03;;
8480;SDS011;4277;51.354;6.740;2023-03-21T03:05:55;14.67;;;7.03;;
8480;SDS011;4277;51.354;6.740;2023-03-21T03:08:38;12.30;;;6.60;;
8480;SDS011;4277;51.354;6.740;2023-03-21T03:11:11;11.37;;;5.87;;
8480;SDS011;4277;51.354;6.740;2023-03-21T03:16:14;10.90;;;6.40;;
8480;SDS011;4277;51.354;6.740;2023-03-21T03:18:57;10.07;;;5.80;;
8480;SDS011;4277;51.354;6.740;2023-03-21T03:24:03;13.93;;;7.00;;
8480;SDS011;4277;51.354;6.740;2023-03-21T03:29:02;13.20;;;6.77;;
8480;SDS011;4277;51.354;6.740;2023-03-21T03:31:30;12.70;;;6.97;;
8480;SDS011;4277;51.354;6.740;2023-03-21T03:33:59;14.53;;;7.23;;
8480;SDS011;4277;51.354;6.740;2023-03-21T03:36:28;14.30;;;7.70;;
8480;SDS011;4277;51.354;6.740;2023-03-21T03:38:55;17.40;;;7.13;;
8480;SDS011;4277;51.354;6.740;2023-03-21T03:41:26;14.40;;;7.27;;
8480;SDS011;4277;51.354;6.740;2023-03-21T03:43:54;11.70;;;7.13;;
8480;SDS011;4277;51.354;6.740;2023-03-21T03:46:24;11.53;;;6.87;;
8480;SDS011;4277;51.354;6.740;2023-03-21T03:48:53;15.00;;;7.27;;
8480;SDS011;4277;51.354;6.740;2023-03-21T03:51:24;14.30;;;7.00;;
8480;SDS011;4277;51.354;6.740;2023-03-21T03:53:54;13.33;;;6.90;;
8480;SDS011;4277;51.354;6.740;2023-03-21T03:56:21;15.17;;;7.07;;
8480;SDS011;4277;51.354;6.740;2023-03-21T03:58:49;13.33;;;7.10;;
8480;SDS011;4277;51.354;6.740;2023-03-21T04:01:15;14.53;;;6.73;;
8480;SDS011;4277;51.354;6.740;2023-03-21T04:03:42;13.57;;;7.40;;
8480;SDS011;4277;51.354;6.740;2023-03-21T04:06:09;13.07;;;7.00;;
8480;SDS011;4277;51.354;6.740;2023-03-21T04:08:35;17.20;;;7.57;;
8480;SDS011;4277;51.354;6.740;2023-03-21T04:11:01;14.67;;;7.13;;
8480;SDS011;4277;51.354;6.740;2023-03-21T04:13:27;14.20;;;7.30;;
8480;SDS011;4277;51.354;6.740;2023-03-21T04:15:53;13.10;;;6.40;;
8480;SDS011;4277;51.354;6.740;2023-03-21T04:18:19;12.37;;;6.63;;
8480;SDS011;4277;51.354;6.740;2023-03-21T04:20:47;13.93;;;7.63;;
8480;SDS011;4277;51.354;6.740;2023-03-21T04:23:15;12.67;;;7.10;;
8480;SDS011;4277;51.354;6.740;2023-03-21T04:25:43;15.80;;;6.97;;
8480;SDS011;4277;51.354;6.740;2023-03-21T04:28:09;14.00;;;7.10;;
8480;SDS011;4277;51.354;6.740;2023-03-21T04:30:35;11.30;;;6.73;;
8480;SDS011;4277;51.354;6.740;2023-03-21T04:33:01;14.00;;;6.90;;
8480;SDS011;4277;51.354;6.740;2023-03-21T04:35:27;12.87;;;7.17;;
8480;SDS011;4277;51.354;6.740;2023-03-21T04:37:53;14.73;;;7.40;;
8480;SDS011;4277;51.354;6.740;2023-03-21T04:40:20;14.47;;;6.60;;
8480;SDS011;4277;51.354;6.740;2023-03-21T04:42:46;13.37;;;6.10;;
8480;SDS011;4277;51.354;6.740;2023-03-21T04:45:13;9.10;;;5.57;;
8480;SDS011;4277;51.354;6.740;2023-03-21T04:47:40;15.93;;;6.70;;
8480;SDS011;4277;51.354;6.740;2023-03-21T04:50:06;13.50;;;6.70;;
8480;SDS011;4277;51.354;6.740;2023-03-21T04:52:32;12.47;;;6.13;;
8480;SDS011;4277;51.354;6.740;2023-03-21T04:54:58;13.10;;;6.60;;
8480;SDS011;4277;51.354;6.740;2023-03-21T04:57:25;15.27;;;7.47;;
8480;SDS011;4277;51.354;6.740;2023-03-21T04:59:51;11.93;;;6.40;;
8480;SDS011;4277;51.354;6.740;2023-03-21T05:02:17;13.20;;;7.37;;
8480;SDS011;4277;51.354;6.740;2023-03-21T05:04:43;12.20;;;7.30;;
8480;SDS011;4277;51.354;6.740;2023-03-21T05:07:09;12.27;;;7.17;;
8480;SDS011;4277;51.354;6.740;2023-03-21T05:09:35;14.10;;;7.10;;
8480;SDS011;4277;51.354;6.740;2023-03-21T05:12:02;14.30;;;7.20;;
8480;SDS011;4277;51.354;6.740;2023-03-21T05:14:28;14.67;;;7.13;;
8480;SDS011;4277;51.354;6.740;2023-03-21T05:16:54;13.43;;;7.03;;
8480;SDS011;4277;51.354;6.740;2023-03-21T05:19:23;18.63;;;7.33;;
8480;SDS011;4277;51.354;6.740;2023-03-21T05:21:49;12.40;;;7.37;;
8480;SDS011;4277;51.354;6.740;2023-03-21T05:24:16;10.80;;;6.90;;
8480;SDS011;4277;51.354;6.740;2023-03-21T05:26:43;14.53;;;6.60;;
8480;SDS011;4277;51.354;6.740;2023-03-21T05:29:14;11.60;;;6.30;;
8480;SDS011;4277;51.354;6.740;2023-03-21T05:31:40;12.73;;;7.03;;
8480;SDS011;4277;51.354;6.740;2023-03-21T05:34:06;12.10;;;6.60;;
8480;SDS011;4277;51.354;6.740;2023-03-21T05:36:32;14.40;;;6.73;;
8480;SDS011;4277;51.354;6.740;2023-03-21T05:39:00;10.83;;;6.13;;
8480;SDS011;4277;51.354;6.740;2023-03-21T05:41:25;15.53;;;7.20;;
8480;SDS011;4277;51.354;6.740;2023-03-21T05:43:51;11.77;;;7.00;;
8480;SDS011;4277;51.354;6.740;2023-03-21T05:46:17;13.03;;;6.40;;
8480;SDS011;4277;51.354;6.740;2023-03-21T05:48:43;14.33;;;6.87;;
8480;SDS011;4277;51.354;6.740;2023-03-21T05:51:09;11.30;;;7.07;;
8480;SDS011;4277;51.354;6.740;2023-03-21T05:53:35;10.80;;;6.93;;
8480;SDS011;4277;51.354;6.740;2023-03-21T05:56:01;12.80;;;6.87;;
8480;SDS011;4277;51.354;6.740;2023-03-21T05:58:27;12.53;;;6.37;;
8480;SDS011;4277;51.354;6.740;2023-03-21T06:00:53;12.53;;;7.10;;
8480;SDS011;4277;51.354;6.740;2023-03-21T06:03:19;15.47;;;7.13;;
8480;SDS011;4277;51.354;6.740;2023-03-21T06:05:45;12.57;;;6.53;;
8480;SDS011;4277;51.354;6.740;2023-03-21T06:08:11;15.60;;;7.20;;
8480;SDS011;4277;51.354;6.740;2023-03-21T06:10:37;13.83;;;7.43;;
8480;SDS011;4277;51.354;6.740;2023-03-21T06:13:03;15.77;;;7.27;;
8480;SDS011;4277;51.354;6.740;2023-03-21T06:15:29;12.17;;;6.83;;
8480;SDS011;4277;51.354;6.740;2023-03-21T06:17:55;15.43;;;6.60;;
8480;SDS011;4277;51.354;6.740;2023-03-21T06:20:21;13.83;;;7.30;;
8480;SDS011;4277;51.354;6.740;2023-03-21T06:22:47;12.50;;;7.07;;
8480;SDS011;4277;51.354;6.740;2023-03-21T06:25:13;12.27;;;6.50;;
8480;SDS011;4277;51.354;6.740;2023-03-21T06:27:39;13.37;;;7.07;;
8480;SDS011;4277;51.354;6.740;2023-03-21T06:30:06;13.40;;;6.73;;
8480;SDS011;4277;51.354;6.740;2023-03-21T06:32:32;14.73;;;6.57;;
8480;SDS011;4277;51.354;6.740;2023-03-21T06:34:58;14.40;;;7.30;;
8480;SDS011;4277;51.354;6.740;2023-03-21T06:37:24;12.07;;;6.20;;
8480;SDS011;4277;51.354;6.740;2023-03-21T06:39:50;10.50;;;6.73;;
8480;SDS011;4277;51.354;6.740;2023-03-21T06:42:16;12.50;;;6.77;;
8480;SDS011;4277;51.354;6.740;2023-03-21T06:44:42;13.57;;;6.87;;
8480;SDS011;4277;51.354;6.740;2023-03-21T06:47:08;17.23;;;7.70;;
8480;SDS011;4277;51.354;6.740;2023-03-21T06:49:34;12.93;;;6.73;;
8480;SDS011;4277;51.354;6.740;2023-03-21T06:52:00;11.10;;;6.20;;
8480;SDS011;4277;51.354;6.740;2023-03-21T06:54:26;12.17;;;6.80;;
8480;SDS011;4277;51.354;6.740;2023-03-21T06:56:52;12.37;;;6.80;;
8480;SDS011;4277;51.354;6.740;2023-03-21T06:59:18;14.63;;;7.23;;
8480;SDS011;4277;51.354;6.740;2023-03-21T07:01:45;14.23;;;7.10;;
8480;SDS011;4277;51.354;6.740;2023-03-21T07:04:11;19.00;;;7.17;;
8480;SDS011;4277;51.354;6.740;2023-03-21T07:06:37;10.77;;;6.17;;
8480;SDS011;4277;51.354;6.740;2023-03-21T07:09:03;14.10;;;7.00;;
8480;SDS011;4277;51.354;6.740;2023-03-21T07:11:30;9.97;;;5.87;;
8480;SDS011;4277;51.354;6.740;2023-03-21T07:13:56;14.83;;;6.60;;
8480;SDS011;4277;51.354;6.740;2023-03-21T07:16:23;10.40;;;5.80;;
8480;SDS011;4277;51.354;6.740;2023-03-21T07:18:49;11.83;;;6.33;;
8480;SDS011;4277;51.354;6.740;2023-03-21T07:21:15;11.77;;;5.80;;
8480;SDS011;4277;51.354;6.740;2023-03-21T07:23:41;12.37;;;6.30;;
8480;SDS011;4277;51.354;6.740;2023-03-21T07:26:07;10.73;;;6.10;;
8480;SDS011;4277;51.354;6.740;2023-03-21T07:28:33;13.67;;;6.30;;
8480;SDS011;4277;51.354;6.740;2023-03-21T07:31:00;9.90;;;5.80;;
8480;SDS011;4277;51.354;6.740;2023-03-21T07:33:28;12.63;;;6.00;;
8480;SDS011;4277;51.354;6.740;2023-03-21T07:35:54;10.37;;;5.60;;
8480;SDS011;4277;51.354;6.740;2023-03-21T07:38:21;11.73;;;5.30;;
8480;SDS011;4277;51.354;6.740;2023-03-21T07:40:48;13.47;;;5.57;;
8480;SDS011;4277;51.354;6.740;2023-03-21T07:43:15;12.37;;;5.57;;
8480;SDS011;4277;51.354;6.740;2023-03-21T07:45:41;12.63;;;5.57;;
8480;SDS011;4277;51.354;6.740;2023-03-21T07:48:07;12.57;;;5.90;;
8480;SDS011;4277;51.354;6.740;2023-03-21T07:50:34;11.53;;;5.57;;
8480;SDS011;4277;51.354;6.740;2023-03-21T07:53:00;11.03;;;5.20;;
8480;SDS011;4277;51.354;6.740;2023-03-21T07:55:26;8.53;;;5.43;;
8480;SDS011;4277;51.354;6.740;2023-03-21T07:57:52;12.20;;;5.50;;
8480;SDS011;4277;51.354;6.740;2023-03-21T08:00:19;12.90;;;5.40;;
8480;SDS011;4277;51.354;6.740;2023-03-21T08:02:49;10.00;;;5.10;;
8480;SDS011;4277;51.354;6.740;2023-03-21T08:05:18;15.70;;;5.43;;
8480;SDS011;4277;51.354;6.740;2023-03-21T08:07:44;9.07;;;5.50;;
8480;SDS011;4277;51.354;6.740;2023-03-21T08:10:10;10.07;;;5.37;;
8480;SDS011;4277;51.354;6.740;2023-03-21T08:12:36;10.83;;;5.67;;
8480;SDS011;4277;51.354;6.740;2023-03-21T08:15:02;12.27;;;5.73;;
8480;SDS011;4277;51.354;6.740;2023-03-21T08:17:28;11.33;;;5.37;;
8480;SDS011;4277;51.354;6.740;2023-03-21T08:19:54;13.40;;;6.00;;
8480;SDS011;4277;51.354;6.740;2023-03-21T08:22:20;11.87;;;5.70;;
8480;SDS011;4277;51.354;6.740;2023-03-21T08:24:46;13.00;;;5.97;;
8480;SDS011;4277;51.354;6.740;2023-03-21T08:27:12;9.10;;;5.43;;
8480;SDS011;4277;51.354;6.740;2023-03-21T08:29:38;10.87;;;5.47;;
8480;SDS011;4277;51.354;6.740;2023-03-21T08:32:06;14.40;;;6.40;;
8480;SDS011;4277;51.354;6.740;2023-03-21T08:34:32;11.40;;;6.23;;
8480;SDS011;4277;51.354;6.740;2023-03-21T08:36:59;11.80;;;6.53;;
8480;SDS011;4277;51.354;6.740;2023-03-21T08:39:25;12.40;;;6.63;;
8480;SDS011;4277;51.354;6.740;2023-03-21T08:41:51;14.67;;;7.10;;
8480;SDS011;4277;51.354;6.740;2023-03-21T08:44:17;10.17;;;6.30;;
8480;SDS011;4277;51.354;6.740;2023-03-21T08:46:44;16.40;;;7.57;;
8480;SDS011;4277;51.354;6.740;2023-03-21T08:49:10;15.80;;;6.77;;
8480;SDS011;4277;51.354;6.740;2023-03-21T08:51:36;15.03;;;7.57;;
8480;SDS011;4277;51.354;6.740;2023-03-21T08:54:02;12.37;;;7.33;;
8480;SDS011;4277;51.354;6.740;2023-03-21T08:56:28;13.20;;;6.80;;
8480;SDS011;4277;51.354;6.740;2023-03-21T08:58:54;14.70;;;7.47;;
8480;SDS011;4277;51.354;6.740;2023-03-21T09:01:20;13.53;;;7.47;;
8480;SDS011;4277;51.354;6.740;2023-03-21T09:03:46;14.13;;;7.53;;
8480;SDS011;4277;51.354;6.740;2023-03-21T09:06:12;13.37;;;7.37;;
8480;SDS011;4277;51.354;6.740;2023-03-21T09:08:39;13.20;;;7.00;;
8480;SDS011;4277;51.354;6.740;2023-03-21T09:11:06;17.73;;;7.67;;
8480;SDS011;4277;51.354;6.740;2023-03-21T09:13:32;12.90;;;7.53;;
8480;SDS011;4277;51.354;6.740;2023-03-21T09:15:58;13.40;;;7.40;;
8480;SDS011;4277;51.354;6.740;2023-03-21T09:18:25;11.63;;;6.80;;
8480;SDS011;4277;51.354;6.740;2023-03-21T09:21:06;14.43;;;7.40;;
8480;SDS011;4277;51.354;6.740;2023-03-21T09:23:36;13.83;;;6.90;;
8480;SDS011;4277;51.354;6.740;2023-03-21T09:26:03;11.17;;;7.00;;
8480;SDS011;4277;51.354;6.740;2023-03-21T09:28:29;12.33;;;6.90;;
8480;SDS011;4277;51.354;6.740;2023-03-21T09:30:57;14.10;;;7.07;;
8480;SDS011;4277;51.354;6.740;2023-03-21T09:33:24;11.47;;;6.67;;
8480;SDS011;4277;51.354;6.740;2023-03-21T09:35:51;17.07;;;7.40;;
8480;SDS011;4277;51.354;6.740;2023-03-21T09:38:18;13.10;;;7.30;;
8480;SDS011;4277;51.354;6.740;2023-03-21T09:43:28;12.03;;;7.43;;
8480;SDS011;4277;51.354;6.740;2023-03-21T09:46:01;17.87;;;8.13;;
8480;SDS011;4277;51.354;6.740;2023-03-21T09:51:15;15.13;;;7.60;;
8480;SDS011;4277;51.354;6.740;2023-03-21T09:53:42;14.70;;;7.67;;
8480;SDS011;4277;51.354;6.740;2023-03-21T09:56:09;12.17;;;6.33;;
8480;SDS011;4277;51.354;6.740;2023-03-21T09:58:47;9.53;;;6.60;;
8480;SDS011;4277;51.354;6.740;2023-03-21T10:01:20;13.07;;;6.57;;
8480;SDS011;4277;51.354;6.740;2023-03-21T10:03:54;11.03;;;6.47;;
8480;SDS011;4277;51.354;6.740;2023-03-21T10:06:21;13.67;;;7.13;;
8480;SDS011;4277;51.354;6.740;2023-03-21T10:08:52;13.93;;;6.97;;
8480;SDS011;4277;51.354;6.740;2023-03-21T10:11:27;12.40;;;6.70;;
8480;SDS011;4277;51.354;6.740;2023-03-21T10:13:56;12.90;;;6.90;;
8480;SDS011;4277;51.354;6.740;2023-03-21T10:18:49;15.03;;;7.23;;
8480;SDS011;4277;51.354;6.740;2023-03-21T10:21:20;13.87;;;7.30;;
8480;SDS011;4277;51.354;6.740;2023-03-21T10:23:47;15.00;;;7.43;;
8480;SDS011;4277;51.354;6.740;2023-03-21T10:26:15;11.27;;;7.13;;
8480;SDS011;4277;51.354;6.740;2023-03-21T10:28:41;11.73;;;6.97;;
8480;SDS011;4277;51.354;6.740;2023-03-21T10:31:08;12.37;;;6.90;;
8480;SDS011;4277;51.354;6.740;2023-03-21T10:33:36;12.37;;;7.53;;
8480;SDS011;4277;51.354;6.740;2023-03-21T10:36:25;11.53;;;7.07;;
8480;SDS011;4277;51.354;6.740;2023-03-21T10:38:51;13.67;;;7.30;;
8480;SDS011;4277;51.354;6.740;2023-03-21T10:41:17;12.30;;;7.07;;
8480;SDS011;4277;51.354;6.740;2023-03-21T10:43:45;13.83;;;6.93;;
8480;SDS011;4277;51.354;6.740;2023-03-21T10:48:41;12.20;;;7.13;;
8480;SDS011;4277;51.354;6.740;2023-03-21T10:51:11;10.10;;;7.17;;
8480;SDS011;4277;51.354;6.740;2023-03-21T10:53:40;10.77;;;7.40;;
8480;SDS011;4277;51.354;6.740;2023-03-21T10:56:11;11.80;;;7.00;;
8480;SDS011;4277;51.354;6.740;2023-03-21T10:58:38;11.43;;;7.43;;
8480;SDS011;4277;51.354;6.740;2023-03-21T11:01:08;15.20;;;7.70;;
8480;SDS011;4277;51.354;6.740;2023-03-21T11:03:37;10.53;;;7.33;;
8480;SDS011;4277;51.354;6.740;2023-03-21T11:06:09;9.77;;;6.40;;
8480;SDS011;4277;51.354;6.740;2023-03-21T11:08:37;10.87;;;6.63;;
8480;SDS011;4277;51.354;6.740;2023-03-21T11:11:07;10.50;;;6.30;;
8480;SDS011;4277;51.354;6.740;2023-03-21T11:13:40;9.40;;;5.97;;
8480;SDS011;4277;51.354;6.740;2023-03-21T11:16:10;9.60;;;5.87;;
8480;SDS011;4277;51.354;6.740;2023-03-21T11:18:39;8.40;;;5.67;;
8480;SDS011;4277;51.354;6.740;2023-03-21T11:21:06;10.30;;;5.43;;
8480;SDS011;4277;51.354;6.740;2023-03-21T11:23:33;11.80;;;6.00;;
8480;SDS011;4277;51.354;6.740;2023-03-21T11:26:00;10.50;;;5.70;;
8480;SDS011;4277;51.354;6.740;2023-03-21T11:28:36;10.10;;;5.57;;
8480;SDS011;4277;51.354;6.740;2023-03-21T11:31:03;10.00;;;5.00;;
8480;SDS011;4277;51.354;6.740;2023-03-21T11:33:34;8.47;;;5.13;;
8480;SDS011;4277;51.354;6.740;2023-03-21T11:36:06;8.53;;;5.23;;
8480;SDS011;4277;51.354;6.740;2023-03-21T11:38:36;11.50;;;5.10;;
8480;SDS011;4277;51.354;6.740;2023-03-21T11:41:03;9.33;;;5.13;;
8480;SDS011;4277;51.354;6.740;2023-03-21T11:43:31;7.87;;;5.17;;
8480;SDS011;4277;51.354;6.740;2023-03-21T11:48:25;13.03;;;6.03;;
8480;SDS011;4277;51.354;6.740;2023-03-21T11:50:55;10.23;;;5.57;;
8480;SDS011;4277;51.354;6.740;2023-03-21T11:53:30;11.63;;;6.47;;
8480;SDS011;4277;51.354;6.740;2023-03-21T11:56:18;8.27;;;5.53;;
8480;SDS011;4277;51.354;6.740;2023-03-21T11:59:00;9.33;;;5.60;;
8480;SDS011;4277;51.354;6.740;2023-03-21T12:01:35;10.20;;;6.77;;
8480;SDS011;4277;51.354;6.740;2023-03-21T12:04:03;8.67;;;5.37;;
8480;SDS011;4277;51.354;6.740;2023-03-21T12:06:47;8.50;;;4.97;;
8480;SDS011;4277;51.354;6.740;2023-03-21T12:09:28;10.73;;;5.80;;
8480;SDS011;4277;51.354;6.740;2023-03-21T12:14:53;8.03;;;5.40;;
8480;SDS011;4277;51.354;6.740;2023-03-21T12:20:13;10.87;;;5.63;;
8480;SDS011;4277;51.354;6.740;2023-03-21T12:25:18;7.73;;;5.40;;
8480;SDS011;4277;51.354;6.740;2023-03-21T12:27:59;8.50;;;5.20;;
8480;SDS011;4277;51.354;6.740;2023-03-21T12:33:13;9.70;;;5.50;;
8480;SDS011;4277;51.354;6.740;2023-03-21T12:40:52;6.90;;;5.30;;
8480;SDS011;4277;51.354;6.740;2023-03-21T12:43:26;7.57;;;5.27;;
8480;SDS011;4277;51.354;6.740;2023-03-21T12:45:54;9.07;;;5.27;;
8480;SDS011;4277;51.354;6.740;2023-03-21T12:51:12;7.77;;;5.20;;
8480;SDS011;4277;51.354;6.740;2023-03-21T12:56:09;7.83;;;5.27;;
8480;SDS011;4277;51.354;6.740;2023-03-21T12:58:59;10.43;;;5.20;;
8480;SDS011;4277;51.354;6.740;2023-03-21T13:01:22;6.50;;;4.90;;
8480;SDS011;4277;51.354;6.740;2023-03-21T13:03:51;6.43;;;4.77;;
8480;SDS011;4277;51.354;6.740;2023-03-21T13:06:21;7.57;;;5.20;;
8480;SDS011;4277;51.354;6.740;2023-03-21T13:08:55;7.83;;;4.50;;
8480;SDS011;4277;51.354;6.740;2023-03-21T13:11:24;8.70;;;4.73;;
8480;SDS011;4277;51.354;6.740;2023-03-21T13:16:33;6.07;;;4.53;;
8480;SDS011;4277;51.354;6.740;2023-03-21T13:24:45;7.07;;;4.53;;
8480;SDS011;4277;51.354;6.740;2023-03-21T13:26:59;6.00;;;4.27;;
8480;SDS011;4277;51.354;6.740;2023-03-21T13:29:28;8.87;;;4.43;;
8480;SDS011;4277;51.354;6.740;2023-03-21T13:32:06;6.73;;;4.23;;
8480;SDS011;4277;51.354;6.740;2023-03-21T13:34:32;6.30;;;4.57;;
8480;SDS011;4277;51.354;6.740;2023-03-21T13:36:58;5.00;;;3.77;;
8480;SDS011;4277;51.354;6.740;2023-03-21T13:39:28;6.33;;;3.97;;
8480;SDS011;4277;51.354;6.740;2023-03-21T13:41:55;6.47;;;4.40;;
8480;SDS011;4277;51.354;6.740;2023-03-21T13:44:39;9.00;;;4.50;;
8480;SDS011;4277;51.354;6.740;2023-03-21T13:52:35;9.00;;;4.37;;
8480;SDS011;4277;51.354;6.740;2023-03-21T13:55:01;6.53;;;4.00;;
8480;SDS011;4277;51.354;6.740;2023-03-21T14:00:17;6.57;;;4.30;;
8480;SDS011;4277;51.354;6.740;2023-03-21T14:05:27;5.23;;;3.80;;
8480;SDS011;4277;51.354;6.740;2023-03-21T14:07:57;5.70;;;4.13;;
8480;SDS011;4277;51.354;6.740;2023-03-21T14:10:29;7.83;;;4.03;;
8480;SDS011;4277;51.354;6.740;2023-03-21T14:12:58;9.07;;;4.03;;
8480;SDS011;4277;51.354;6.740;2023-03-21T14:15:25;6.17;;;3.90;;
8480;SDS011;4277;51.354;6.740;2023-03-21T14:17:56;6.17;;;4.00;;
8480;SDS011;4277;51.354;6.740;2023-03-21T14:20:25;5.87;;;4.10;;
8480;SDS011;4277;51.354;6.740;2023-03-21T14:22:51;7.00;;;3.87;;
8480;SDS011;4277;51.354;6.740;2023-03-21T14:25:18;6.73;;;3.97;;
8480;SDS011;4277;51.354;6.740;2023-03-21T14:27:49;6.10;;;4.17;;
8480;SDS011;4277;51.354;6.740;2023-03-21T14:30:25;5.23;;;3.70;;
8480;SDS011;4277;51.354;6.740;2023-03-21T14:32:59;6.73;;;4.17;;
8480;SDS011;4277;51.354;6.740;2023-03-21T14:35:29;5.20;;;3.63;;
8480;SDS011;4277;51.354;6.740;2023-03-21T14:37:58;6.23;;;4.30;;
8480;SDS011;4277;51.354;6.740;2023-03-21T14:40:26;6.97;;;3.80;;
8480;SDS011;4277;51.354;6.740;2023-03-21T14:42:52;5.83;;;3.73;;
8480;SDS011;4277;51.354;6.740;2023-03-21T14:45:20;5.70;;;3.47;;
8480;SDS011;4277;51.354;6.740;2023-03-21T14:47:56;5.97;;;4.10;;
8480;SDS011;4277;51.354;6.740;2023-03-21T14:50:33;5.10;;;4.00;;
8480;SDS011;4277;51.354;6.740;2023-03-21T14:53:01;4.97;;;4.00;;
8480;SDS011;4277;51.354;6.740;2023-03-21T14:55:27;6.80;;;4.20;;
8480;SDS011;4277;51.354;6.740;2023-03-21T14:57:53;5.10;;;3.90;;
8480;SDS011;4277;51.354;6.740;2023-03-21T15:00:22;4.60;;;3.70;;
8480;SDS011;4277;51.354;6.740;2023-03-21T15:02:50;6.13;;;4.07;;
8480;SDS011;4277;51.354;6.740;2023-03-21T15:07:56;5.07;;;3.60;;
8480;SDS011;4277;51.354;6.740;2023-03-21T15:10:24;6.00;;;4.13;;
8480;SDS011;4277;51.354;6.740;2023-03-21T15:12:54;7.43;;;4.03;;
8480;SDS011;4277;51.354;6.740;2023-03-21T15:15:20;7.20;;;4.10;;
8480;SDS011;4277;51.354;6.740;2023-03-21T15:17:48;5.23;;;3.70;;
8480;SDS011;4277;51.354;6.740;2023-03-21T15:20:16;5.73;;;3.80;;
8480;SDS011;4277;51.354;6.740;2023-03-21T15:22:44;6.23;;;4.00;;
8480;SDS011;4277;51.354;6.740;2023-03-21T15:25:12;6.33;;;3.80;;
8480;SDS011;4277;51.354;6.740;2023-03-21T15:27:41;4.20;;;3.73;;
8480;SDS011;4277;51.354;6.740;2023-03-21T15:30:21;6.57;;;3.67;;
8480;SDS011;4277;51.354;6.740;2023-03-21T15:32:47;6.27;;;3.60;;
8480;SDS011;4277;51.354;6.740;2023-03-21T15:35:14;7.70;;;4.30;;
8480;SDS011;4277;51.354;6.740;2023-03-21T15:37:41;5.43;;;3.77;;
8480;SDS011;4277;51.354;6.740;2023-03-21T15:40:29;5.93;;;4.30;;
8480;SDS011;4277;51.354;6.740;2023-03-21T15:45:31;4.73;;;3.90;;
8480;SDS011;4277;51.354;6.740;2023-03-21T15:48:01;8.20;;;4.03;;
8480;SDS011;4277;51.354;6.740;2023-03-21T15:50:34;4.97;;;3.50;;
8480;SDS011;4277;51.354;6.740;2023-03-21T15:53:04;6.80;;;4.00;;
8480;SDS011;4277;51.354;6.740;2023-03-21T15:55:38;6.07;;;3.90;;
8480;SDS011;4277;51.354;6.740;2023-03-21T15:58:09;5.53;;;3.70;;
8480;SDS011;4277;51.354;6.740;2023-03-21T16:00:40;6.17;;;4.03;;
8480;SDS011;4277;51.354;6.740;2023-03-21T16:03:15;6.70;;;4.00;;
8480;SDS011;4277;51.354;6.740;2023-03-21T16:05:42;5.77;;;4.20;;
8480;SDS011;4277;51.354;6.740;2023-03-21T16:08:26;9.43;;;4.27;;
8480;SDS011;4277;51.354;6.740;2023-03-21T16:10:52;5.97;;;4.20;;
8480;SDS011;4277;51.354;6.740;2023-03-21T16:13:18;7.70;;;4.30;;
8480;SDS011;4277;51.354;6.740;2023-03-21T16:15:44;5.80;;;3.80;;
8480;SDS011;4277;51.354;6.740;2023-03-21T16:18:12;9.10;;;4.20;;
8480;SDS011;4277;51.354;6.740;2023-03-21T16:20:39;9.10;;;3.67;;
8480;SDS011;4277;51.354;6.740;2023-03-21T16:23:08;5.33;;;4.10;;
8480;SDS011;4277;51.354;6.740;2023-03-21T16:25:34;6.47;;;4.43;;
8480;SDS011;4277;51.354;6.740;2023-03-21T16:28:00;7.20;;;4.40;;
8480;SDS011;4277;51.354;6.740;2023-03-21T16:30:26;6.27;;;4.20;;
8480;SDS011;4277;51.354;6.740;2023-03-21T16:32:52;6.83;;;4.07;;
8480;SDS011;4277;51.354;6.740;2023-03-21T16:35:18;8.20;;;4.63;;
8480;SDS011;4277;51.354;6.740;2023-03-21T16:37:45;13.67;;;4.83;;